sensor_id;sensor_type;location;lat;lon;timestamp;P1;durP1;ratioP1;P2;durP2;ratioP2
3217;SDS011;1621;49.702;8.618;2022-09-23T00:00:06;2.77;;;1.60;;
3217;SDS011;1621;49.702;8.618;2022-09-23T00:02:32;2.30;;;1.33;;
3217;SDS011;1621;49.702;8.618;2022-09-23T00:04:58;2.60;;;1.80;;
3217;SDS011;1621;49.702;8.618;2022-09-23T00:07:25;3.30;;;2.00;;
3217;SDS011;1621;49.702;8.618;2022-09-23T00:09:51;2.47;;;1.57;;
3217;SDS011;1621;49.702;8.618;2022-09-23T00:12:20;3.53;;;2.30;;
3217;SDS011;1621;49.702;8.618;2022-09-23T00:14:46;2.60;;;1.80;;
3217;SDS011;1621;49.702;8.618;2022-09-23T00:17:13;2.80;;;1.80;;
3217;SDS011;1621;49.702;8.618;2022-09-23T00:19:39;3.67;;;1.60;;
3217;SDS011;1621;49.702;8.618;2022-09-23T00:22:05;3.13;;;2.00;;
3217;SDS011;1621;49.702;8.618;2022-09-23T00:24:32;2.90;;;1.73;;
3217;SDS011;1621;49.702;8.618;2022-09-23T00:26:59;2.77;;;1.70;;
3217;SDS011;1621;49.702;8.618;2022-09-23T00:29:26;3.70;;;1.70;;
3217;SDS011;1621;49.702;8.618;2022-09-23T00:31:53;2.80;;;1.90;;
3217;SDS011;1621;49.702;8.618;2022-09-23T00:34:19;2.47;;;1.47;;
3217;SDS011;1621;49.702;8.618;2022-09-23T00:36:45;3.33;;;1.80;;
3217;SDS011;1621;49.702;8.618;2022-09-23T00:39:11;3.80;;;2.40;;
3217;SDS011;1621;49.702;8.618;2022-09-23T00:41:38;2.60;;;1.80;;
3217;SDS011;1621;49.702;8.618;2022-09-23T00:46:47;2.93;;;1.63;;
3217;SDS011;1621;49.702;8.618;2022-09-23T00:49:14;3.60;;;2.10;;
3217;SDS011;1621;49.702;8.618;2022-09-23T00:51:45;6.00;;;2.10;;
3217;SDS011;1621;49.702;8.618;2022-09-23T00:54:14;4.13;;;1.93;;
3217;SDS011;1621;49.702;8.618;2022-09-23T00:56:41;4.53;;;1.93;;
3217;SDS011;1621;49.702;8.618;2022-09-23T00:59:07;3.57;;;2.10;;
3217;SDS011;1621;49.702;8.618;2022-09-23T01:01:34;5.27;;;1.90;;
3217;SDS011;1621;49.702;8.618;2022-09-23T01:04:03;4.53;;;2.17;;
3217;SDS011;1621;49.702;8.618;2022-09-23T01:06:30;3.50;;;2.27;;
3217;SDS011;1621;49.702;8.618;2022-09-23T01:08:56;3.87;;;2.20;;
3217;SDS011;1621;49.702;8.618;2022-09-23T01:11:29;3.70;;;2.33;;
3217;SDS011;1621;49.702;8.618;2022-09-23T01:14:01;6.50;;;2.53;;
3217;SDS011;1621;49.702;8.618;2022-09-23T01:16:32;4.60;;;2.80;;
3217;SDS011;1621;49.702;8.618;2022-09-23T01:19:05;4.23;;;2.67;;
3217;SDS011;1621;49.702;8.618;2022-09-23T01:21:37;5.10;;;2.80;;
3217;SDS011;1621;49.702;8.618;2022-09-23T01:24:14;6.27;;;3.37;;
3217;SDS011;1621;49.702;8.618;2022-09-23T01:26:54;4.57;;;3.27;;
3217;SDS011;1621;49.702;8.618;2022-09-23T01:32:15;4.63;;;3.10;;
3217;SDS011;1621;49.702;8.618;2022-09-23T01:34:45;5.37;;;3.60;;
3217;SDS011;1621;49.702;8.618;2022-09-23T01:37:14;4.87;;;3.07;;
3217;SDS011;1621;49.702;8.618;2022-09-23T01:39:43;5.97;;;3.10;;
3217;SDS011;1621;49.702;8.618;2022-09-23T01:42:12;5.13;;;3.30;;
3217;SDS011;1621;49.702;8.618;2022-09-23T01:44:42;6.60;;;3.43;;
3217;SDS011;1621;49.702;8.618;2022-09-23T01:47:12;3.80;;;2.70;;
3217;SDS011;1621;49.702;8.618;2022-09-23T01:49:44;3.60;;;2.60;;
3217;SDS011;1621;49.702;8.618;2022-09-23T01:52:12;3.83;;;2.57;;
3217;SDS011;1621;49.702;8.618;2022-09-23T01:54:41;4.03;;;2.80;;
3217;SDS011;1621;49.702;8.618;2022-09-23T01:57:10;5.43;;;3.03;;
3217;SDS011;1621;49.702;8.618;2022-09-23T01:59:38;6.20;;;2.87;;
3217;SDS011;1621;49.702;8.618;2022-09-23T02:02:06;4.70;;;2.90;;
3217;SDS011;1621;49.702;8.618;2022-09-23T02:04:36;4.23;;;2.70;;
3217;SDS011;1621;49.702;8.618;2022-09-23T02:07:07;4.93;;;3.03;;
3217;SDS011;1621;49.702;8.618;2022-09-23T02:09:35;5.33;;;3.50;;
3217;SDS011;1621;49.702;8.618;2022-09-23T02:12:04;4.37;;;3.17;;
3217;SDS011;1621;49.702;8.618;2022-09-23T02:14:34;7.43;;;3.00;;
3217;SDS011;1621;49.702;8.618;2022-09-23T02:17:05;4.60;;;3.23;;
3217;SDS011;1621;49.702;8.618;2022-09-23T02:19:34;5.27;;;3.40;;
3217;SDS011;1621;49.702;8.618;2022-09-23T02:22:03;7.60;;;3.70;;
3217;SDS011;1621;49.702;8.618;2022-09-23T02:24:33;6.40;;;3.20;;
3217;SDS011;1621;49.702;8.618;2022-09-23T02:27:04;5.60;;;3.67;;
3217;SDS011;1621;49.702;8.618;2022-09-23T02:29:36;4.97;;;3.20;;
3217;SDS011;1621;49.702;8.618;2022-09-23T02:32:06;4.93;;;3.40;;
3217;SDS011;1621;49.702;8.618;2022-09-23T02:34:39;4.40;;;3.13;;
3217;SDS011;1621;49.702;8.618;2022-09-23T02:37:10;5.30;;;3.03;;
3217;SDS011;1621;49.702;8.618;2022-09-23T02:39:45;6.77;;;3.17;;
3217;SDS011;1621;49.702;8.618;2022-09-23T02:42:14;7.97;;;3.43;;
3217;SDS011;1621;49.702;8.618;2022-09-23T02:44:41;6.90;;;3.40;;
3217;SDS011;1621;49.702;8.618;2022-09-23T02:47:07;5.50;;;3.00;;
3217;SDS011;1621;49.702;8.618;2022-09-23T02:49:34;4.50;;;3.20;;
3217;SDS011;1621;49.702;8.618;2022-09-23T02:52:02;4.23;;;2.70;;
3217;SDS011;1621;49.702;8.618;2022-09-23T02:54:29;5.87;;;2.70;;
3217;SDS011;1621;49.702;8.618;2022-09-23T02:56:58;4.63;;;2.73;;
3217;SDS011;1621;49.702;8.618;2022-09-23T02:59:25;3.63;;;2.50;;
3217;SDS011;1621;49.702;8.618;2022-09-23T03:04:39;7.80;;;2.93;;
3217;SDS011;1621;49.702;8.618;2022-09-23T03:07:09;3.30;;;2.77;;
3217;SDS011;1621;49.702;8.618;2022-09-23T03:09:39;5.00;;;3.23;;
3217;SDS011;1621;49.702;8.618;2022-09-23T03:12:14;4.00;;;2.70;;
3217;SDS011;1621;49.702;8.618;2022-09-23T03:14:44;5.00;;;3.20;;
3217;SDS011;1621;49.702;8.618;2022-09-23T03:17:17;4.70;;;3.20;;
3217;SDS011;1621;49.702;8.618;2022-09-23T03:19:46;4.30;;;2.90;;
3217;SDS011;1621;49.702;8.618;2022-09-23T03:22:15;5.70;;;3.50;;
3217;SDS011;1621;49.702;8.618;2022-09-23T03:24:44;4.80;;;3.40;;
3217;SDS011;1621;49.702;8.618;2022-09-23T03:27:12;4.63;;;3.30;;
3217;SDS011;1621;49.702;8.618;2022-09-23T03:29:42;4.50;;;3.07;;
3217;SDS011;1621;49.702;8.618;2022-09-23T03:32:11;4.40;;;3.20;;
3217;SDS011;1621;49.702;8.618;2022-09-23T03:34:38;7.57;;;3.53;;
3217;SDS011;1621;49.702;8.618;2022-09-23T03:37:07;5.17;;;3.60;;
3217;SDS011;1621;49.702;8.618;2022-09-23T03:39:36;4.50;;;3.37;;
3217;SDS011;1621;49.702;8.618;2022-09-23T03:42:05;5.23;;;3.70;;
3217;SDS011;1621;49.702;8.618;2022-09-23T03:44:42;6.00;;;3.83;;
3217;SDS011;1621;49.702;8.618;2022-09-23T03:47:09;5.53;;;3.47;;
3217;SDS011;1621;49.702;8.618;2022-09-23T03:49:37;5.37;;;3.47;;
3217;SDS011;1621;49.702;8.618;2022-09-23T03:52:04;4.60;;;3.20;;
3217;SDS011;1621;49.702;8.618;2022-09-23T03:54:31;5.43;;;3.40;;
3217;SDS011;1621;49.702;8.618;2022-09-23T03:56:58;7.23;;;3.60;;
3217;SDS011;1621;49.702;8.618;2022-09-23T03:59:25;6.10;;;3.53;;
3217;SDS011;1621;49.702;8.618;2022-09-23T04:01:52;6.43;;;3.80;;
3217;SDS011;1621;49.702;8.618;2022-09-23T04:04:19;4.60;;;3.67;;
3217;SDS011;1621;49.702;8.618;2022-09-23T04:06:45;6.53;;;4.00;;
3217;SDS011;1621;49.702;8.618;2022-09-23T04:09:12;4.80;;;3.50;;
3217;SDS011;1621;49.702;8.618;2022-09-23T04:11:38;6.27;;;3.80;;
3217;SDS011;1621;49.702;8.618;2022-09-23T04:14:04;4.20;;;3.20;;
3217;SDS011;1621;49.702;8.618;2022-09-23T04:16:31;6.80;;;3.97;;
3217;SDS011;1621;49.702;8.618;2022-09-23T04:18:58;7.90;;;4.40;;
3217;SDS011;1621;49.702;8.618;2022-09-23T04:21:25;5.83;;;4.17;;
3217;SDS011;1621;49.702;8.618;2022-09-23T04:23:51;6.00;;;4.50;;
3217;SDS011;1621;49.702;8.618;2022-09-23T04:26:18;6.10;;;3.83;;
3217;SDS011;1621;49.702;8.618;2022-09-23T04:28:44;13.87;;;4.30;;
3217;SDS011;1621;49.702;8.618;2022-09-23T04:31:10;5.70;;;3.67;;
3217;SDS011;1621;49.702;8.618;2022-09-23T04:33:36;8.40;;;4.30;;
3217;SDS011;1621;49.702;8.618;2022-09-23T04:36:04;6.30;;;4.33;;
3217;SDS011;1621;49.702;8.618;2022-09-23T04:38:31;5.90;;;3.47;;
3217;SDS011;1621;49.702;8.618;2022-09-23T04:40:57;6.57;;;3.53;;
3217;SDS011;1621;49.702;8.618;2022-09-23T04:43:23;5.77;;;4.30;;
3217;SDS011;1621;49.702;8.618;2022-09-23T04:45:56;6.17;;;4.13;;
3217;SDS011;1621;49.702;8.618;2022-09-23T04:48:22;8.30;;;4.20;;
3217;SDS011;1621;49.702;8.618;2022-09-23T04:50:49;6.30;;;3.93;;
3217;SDS011;1621;49.702;8.618;2022-09-23T04:53:16;5.47;;;3.93;;
3217;SDS011;1621;49.702;8.618;2022-09-23T04:55:43;4.80;;;3.57;;
3217;SDS011;1621;49.702;8.618;2022-09-23T04:58:09;6.20;;;3.90;;
3217;SDS011;1621;49.702;8.618;2022-09-23T05:00:35;6.40;;;3.80;;
3217;SDS011;1621;49.702;8.618;2022-09-23T05:03:02;6.13;;;3.90;;
3217;SDS011;1621;49.702;8.618;2022-09-23T05:05:29;5.50;;;4.00;;
3217;SDS011;1621;49.702;8.618;2022-09-23T05:07:56;5.23;;;3.53;;
3217;SDS011;1621;49.702;8.618;2022-09-23T05:10:23;5.53;;;4.23;;
3217;SDS011;1621;49.702;8.618;2022-09-23T05:12:49;4.63;;;3.63;;
3217;SDS011;1621;49.702;8.618;2022-09-23T05:15:16;6.03;;;3.70;;
3217;SDS011;1621;49.702;8.618;2022-09-23T05:17:42;7.13;;;3.73;;
3217;SDS011;1621;49.702;8.618;2022-09-23T05:20:09;6.20;;;3.70;;
3217;SDS011;1621;49.702;8.618;2022-09-23T05:22:35;4.67;;;3.50;;
3217;SDS011;1621;49.702;8.618;2022-09-23T05:25:02;5.77;;;3.80;;
3217;SDS011;1621;49.702;8.618;2022-09-23T05:27:29;4.83;;;3.43;;
3217;SDS011;1621;49.702;8.618;2022-09-23T05:29:56;6.50;;;4.00;;
3217;SDS011;1621;49.702;8.618;2022-09-23T05:32:22;6.07;;;4.20;;
3217;SDS011;1621;49.702;8.618;2022-09-23T05:34:50;6.33;;;3.40;;
3217;SDS011;1621;49.702;8.618;2022-09-23T05:37:19;5.50;;;4.23;;
3217;SDS011;1621;49.702;8.618;2022-09-23T05:39:45;7.43;;;4.80;;
3217;SDS011;1621;49.702;8.618;2022-09-23T05:42:12;6.20;;;4.30;;
3217;SDS011;1621;49.702;8.618;2022-09-23T05:44:39;5.20;;;3.60;;
3217;SDS011;1621;49.702;8.618;2022-09-23T05:47:06;5.43;;;4.50;;
3217;SDS011;1621;49.702;8.618;2022-09-23T05:49:32;5.77;;;4.50;;
3217;SDS011;1621;49.702;8.618;2022-09-23T05:52:00;7.87;;;4.50;;
3217;SDS011;1621;49.702;8.618;2022-09-23T05:54:26;6.33;;;5.20;;
3217;SDS011;1621;49.702;8.618;2022-09-23T05:56:52;6.73;;;5.00;;
3217;SDS011;1621;49.702;8.618;2022-09-23T05:59:19;8.30;;;5.10;;
3217;SDS011;1621;49.702;8.618;2022-09-23T06:01:46;6.10;;;4.83;;
3217;SDS011;1621;49.702;8.618;2022-09-23T06:04:13;6.50;;;4.90;;
3217;SDS011;1621;49.702;8.618;2022-09-23T06:06:39;7.83;;;5.20;;
3217;SDS011;1621;49.702;8.618;2022-09-23T06:09:07;6.30;;;4.90;;
3217;SDS011;1621;49.702;8.618;2022-09-23T06:11:35;6.73;;;4.73;;
3217;SDS011;1621;49.702;8.618;2022-09-23T06:14:02;6.53;;;5.00;;
3217;SDS011;1621;49.702;8.618;2022-09-23T06:16:29;7.43;;;4.97;;
3217;SDS011;1621;49.702;8.618;2022-09-23T06:18:57;5.90;;;4.40;;
3217;SDS011;1621;49.702;8.618;2022-09-23T06:21:24;6.20;;;5.00;;
3217;SDS011;1621;49.702;8.618;2022-09-23T06:23:50;6.60;;;4.90;;
3217;SDS011;1621;49.702;8.618;2022-09-23T06:26:17;7.93;;;5.00;;
3217;SDS011;1621;49.702;8.618;2022-09-23T06:28:43;8.07;;;5.30;;
3217;SDS011;1621;49.702;8.618;2022-09-23T06:31:10;7.47;;;5.23;;
3217;SDS011;1621;49.702;8.618;2022-09-23T06:33:37;6.57;;;5.13;;
3217;SDS011;1621;49.702;8.618;2022-09-23T06:36:06;8.33;;;6.20;;
3217;SDS011;1621;49.702;8.618;2022-09-23T06:38:32;7.40;;;5.33;;
3217;SDS011;1621;49.702;8.618;2022-09-23T06:40:59;6.80;;;5.00;;
3217;SDS011;1621;49.702;8.618;2022-09-23T06:43:26;7.10;;;5.30;;
3217;SDS011;1621;49.702;8.618;2022-09-23T06:45:52;6.70;;;4.80;;
3217;SDS011;1621;49.702;8.618;2022-09-23T06:48:18;7.00;;;5.50;;
3217;SDS011;1621;49.702;8.618;2022-09-23T06:50:45;7.43;;;5.67;;
3217;SDS011;1621;49.702;8.618;2022-09-23T06:53:13;11.43;;;5.87;;
3217;SDS011;1621;49.702;8.618;2022-09-23T06:55:40;7.00;;;5.10;;
3217;SDS011;1621;49.702;8.618;2022-09-23T06:58:07;5.10;;;4.53;;
3217;SDS011;1621;49.702;8.618;2022-09-23T07:00:34;7.53;;;5.30;;
3217;SDS011;1621;49.702;8.618;2022-09-23T07:03:00;7.10;;;5.50;;
3217;SDS011;1621;49.702;8.618;2022-09-23T07:05:26;8.90;;;5.20;;
3217;SDS011;1621;49.702;8.618;2022-09-23T07:07:52;7.60;;;5.20;;
3217;SDS011;1621;49.702;8.618;2022-09-23T07:10:20;8.60;;;6.20;;
3217;SDS011;1621;49.702;8.618;2022-09-23T07:12:46;9.53;;;5.57;;
3217;SDS011;1621;49.702;8.618;2022-09-23T07:15:13;13.90;;;6.53;;
3217;SDS011;1621;49.702;8.618;2022-09-23T07:17:40;10.00;;;6.17;;
3217;SDS011;1621;49.702;8.618;2022-09-23T07:20:09;10.60;;;5.97;;
3217;SDS011;1621;49.702;8.618;2022-09-23T07:22:36;9.63;;;5.40;;
3217;SDS011;1621;49.702;8.618;2022-09-23T07:25:03;11.60;;;5.27;;
3217;SDS011;1621;49.702;8.618;2022-09-23T07:27:31;7.70;;;5.10;;
3217;SDS011;1621;49.702;8.618;2022-09-23T07:29:57;8.27;;;5.83;;
3217;SDS011;1621;49.702;8.618;2022-09-23T07:32:24;10.60;;;4.90;;
3217;SDS011;1621;49.702;8.618;2022-09-23T07:34:50;8.10;;;5.60;;
3217;SDS011;1621;49.702;8.618;2022-09-23T07:37:17;7.03;;;5.30;;
3217;SDS011;1621;49.702;8.618;2022-09-23T07:39:44;8.67;;;5.80;;
3217;SDS011;1621;49.702;8.618;2022-09-23T07:42:10;11.50;;;5.30;;
3217;SDS011;1621;49.702;8.618;2022-09-23T07:44:38;7.37;;;5.00;;
3217;SDS011;1621;49.702;8.618;2022-09-23T07:47:06;7.47;;;5.50;;
3217;SDS011;1621;49.702;8.618;2022-09-23T07:49:33;10.73;;;5.43;;
3217;SDS011;1621;49.702;8.618;2022-09-23T07:51:59;8.70;;;5.70;;
3217;SDS011;1621;49.702;8.618;2022-09-23T07:54:26;9.90;;;5.50;;
3217;SDS011;1621;49.702;8.618;2022-09-23T07:56:53;8.90;;;6.17;;
3217;SDS011;1621;49.702;8.618;2022-09-23T07:59:20;11.93;;;5.57;;
3217;SDS011;1621;49.702;8.618;2022-09-23T08:01:48;7.03;;;5.57;;
3217;SDS011;1621;49.702;8.618;2022-09-23T08:04:17;8.50;;;5.43;;
3217;SDS011;1621;49.702;8.618;2022-09-23T08:06:45;6.70;;;5.13;;
3217;SDS011;1621;49.702;8.618;2022-09-23T08:09:11;10.30;;;5.80;;
3217;SDS011;1621;49.702;8.618;2022-09-23T08:11:38;7.57;;;5.60;;
3217;SDS011;1621;49.702;8.618;2022-09-23T08:14:05;8.90;;;5.53;;
3217;SDS011;1621;49.702;8.618;2022-09-23T08:16:32;7.90;;;5.27;;
3217;SDS011;1621;49.702;8.618;2022-09-23T08:19:00;7.70;;;5.87;;
3217;SDS011;1621;49.702;8.618;2022-09-23T08:21:26;7.73;;;5.50;;
3217;SDS011;1621;49.702;8.618;2022-09-23T08:23:53;7.00;;;5.60;;
3217;SDS011;1621;49.702;8.618;2022-09-23T08:26:19;8.60;;;5.53;;
3217;SDS011;1621;49.702;8.618;2022-09-23T08:28:46;7.20;;;5.80;;
3217;SDS011;1621;49.702;8.618;2022-09-23T08:31:12;7.07;;;5.13;;
3217;SDS011;1621;49.702;8.618;2022-09-23T08:33:39;7.53;;;5.77;;
3217;SDS011;1621;49.702;8.618;2022-09-23T08:36:07;7.33;;;5.90;;
3217;SDS011;1621;49.702;8.618;2022-09-23T08:38:33;7.40;;;5.63;;
3217;SDS011;1621;49.702;8.618;2022-09-23T08:41:04;9.47;;;6.70;;
3217;SDS011;1621;49.702;8.618;2022-09-23T08:43:33;7.10;;;5.90;;
3217;SDS011;1621;49.702;8.618;2022-09-23T08:46:00;7.77;;;6.30;;
3217;SDS011;1621;49.702;8.618;2022-09-23T08:48:28;7.43;;;5.90;;
3217;SDS011;1621;49.702;8.618;2022-09-23T08:50:57;7.90;;;5.80;;
3217;SDS011;1621;49.702;8.618;2022-09-23T08:53:26;9.53;;;5.67;;
3217;SDS011;1621;49.702;8.618;2022-09-23T08:55:53;10.87;;;6.20;;
3217;SDS011;1621;49.702;8.618;2022-09-23T08:58:25;7.40;;;5.97;;
3217;SDS011;1621;49.702;8.618;2022-09-23T09:00:58;6.40;;;5.70;;
3217;SDS011;1621;49.702;8.618;2022-09-23T09:03:29;9.97;;;5.63;;
3217;SDS011;1621;49.702;8.618;2022-09-23T09:05:58;8.77;;;5.70;;
3217;SDS011;1621;49.702;8.618;2022-09-23T09:08:27;7.87;;;5.70;;
3217;SDS011;1621;49.702;8.618;2022-09-23T09:10:55;7.30;;;6.03;;
3217;SDS011;1621;49.702;8.618;2022-09-23T09:13:24;7.33;;;6.10;;
3217;SDS011;1621;49.702;8.618;2022-09-23T09:15:56;12.03;;;5.93;;
3217;SDS011;1621;49.702;8.618;2022-09-23T09:18:25;8.93;;;6.20;;
3217;SDS011;1621;49.702;8.618;2022-09-23T09:20:56;9.47;;;5.77;;
3217;SDS011;1621;49.702;8.618;2022-09-23T09:23:25;7.47;;;5.70;;
3217;SDS011;1621;49.702;8.618;2022-09-23T09:25:56;8.10;;;6.27;;
3217;SDS011;1621;49.702;8.618;2022-09-23T09:28:25;9.70;;;5.90;;
3217;SDS011;1621;49.702;8.618;2022-09-23T09:30:55;14.90;;;6.03;;
3217;SDS011;1621;49.702;8.618;2022-09-23T09:33:23;7.03;;;5.50;;
3217;SDS011;1621;49.702;8.618;2022-09-23T09:35:58;6.60;;;5.17;;
3217;SDS011;1621;49.702;8.618;2022-09-23T09:38:26;7.20;;;5.77;;
3217;SDS011;1621;49.702;8.618;2022-09-23T09:40:52;9.77;;;5.60;;
3217;SDS011;1621;49.702;8.618;2022-09-23T09:43:21;14.50;;;6.70;;
3217;SDS011;1621;49.702;8.618;2022-09-23T09:45:51;8.27;;;6.20;;
3217;SDS011;1621;49.702;8.618;2022-09-23T09:48:19;8.73;;;6.20;;
3217;SDS011;1621;49.702;8.618;2022-09-23T09:50:49;7.77;;;5.27;;
3217;SDS011;1621;49.702;8.618;2022-09-23T09:53:20;7.97;;;5.40;;
3217;SDS011;1621;49.702;8.618;2022-09-23T09:55:55;10.43;;;6.60;;
3217;SDS011;1621;49.702;8.618;2022-09-23T09:58:25;8.80;;;5.70;;
3217;SDS011;1621;49.702;8.618;2022-09-23T10:00:54;7.43;;;6.07;;
3217;SDS011;1621;49.702;8.618;2022-09-23T10:03:25;7.63;;;5.30;;
3217;SDS011;1621;49.702;8.618;2022-09-23T10:05:55;9.83;;;5.57;;
3217;SDS011;1621;49.702;8.618;2022-09-23T10:08:23;7.80;;;6.30;;
3217;SDS011;1621;49.702;8.618;2022-09-23T10:10:50;6.77;;;4.80;;
3217;SDS011;1621;49.702;8.618;2022-09-23T10:13:19;8.43;;;5.17;;
3217;SDS011;1621;49.702;8.618;2022-09-23T10:15:49;6.47;;;5.20;;
3217;SDS011;1621;49.702;8.618;2022-09-23T10:18:19;8.40;;;4.90;;
3217;SDS011;1621;49.702;8.618;2022-09-23T10:20:45;11.03;;;6.60;;
3217;SDS011;1621;49.702;8.618;2022-09-23T10:23:14;6.53;;;5.60;;
3217;SDS011;1621;49.702;8.618;2022-09-23T10:25:41;6.50;;;4.13;;
3217;SDS011;1621;49.702;8.618;2022-09-23T10:30:55;6.90;;;5.10;;
3217;SDS011;1621;49.702;8.618;2022-09-23T10:33:28;7.47;;;4.40;;
3217;SDS011;1621;49.702;8.618;2022-09-23T10:35:56;13.50;;;4.40;;
3217;SDS011;1621;49.702;8.618;2022-09-23T10:38:22;10.83;;;4.47;;
3217;SDS011;1621;49.702;8.618;2022-09-23T10:40:49;7.47;;;4.33;;
3217;SDS011;1621;49.702;8.618;2022-09-23T10:43:33;8.87;;;4.73;;
3217;SDS011;1621;49.702;8.618;2022-09-23T10:46:24;6.30;;;4.40;;
3217;SDS011;1621;49.702;8.618;2022-09-23T10:49:09;6.37;;;3.40;;
3217;SDS011;1621;49.702;8.618;2022-09-23T10:51:43;5.63;;;3.50;;
3217;SDS011;1621;49.702;8.618;2022-09-23T10:54:13;5.00;;;3.83;;
3217;SDS011;1621;49.702;8.618;2022-09-23T10:56:43;6.73;;;4.50;;
3217;SDS011;1621;49.702;8.618;2022-09-23T10:59:18;6.80;;;4.70;;
3217;SDS011;1621;49.702;8.618;2022-09-23T11:01:55;8.33;;;5.37;;
3217;SDS011;1621;49.702;8.618;2022-09-23T11:04:38;7.63;;;5.27;;
3217;SDS011;1621;49.702;8.618;2022-09-23T11:07:11;7.77;;;4.80;;
3217;SDS011;1621;49.702;8.618;2022-09-23T11:09:44;6.37;;;4.43;;
3217;SDS011;1621;49.702;8.618;2022-09-23T11:12:18;11.30;;;4.77;;
3217;SDS011;1621;49.702;8.618;2022-09-23T11:14:58;6.50;;;4.80;;
3217;SDS011;1621;49.702;8.618;2022-09-23T11:20:25;9.40;;;5.70;;
3217;SDS011;1621;49.702;8.618;2022-09-23T11:23:02;8.27;;;6.07;;
3217;SDS011;1621;49.702;8.618;2022-09-23T11:25:36;6.63;;;5.40;;
3217;SDS011;1621;49.702;8.618;2022-09-23T11:28:12;7.60;;;5.50;;
3217;SDS011;1621;49.702;8.618;2022-09-23T11:30:42;7.20;;;5.53;;
3217;SDS011;1621;49.702;8.618;2022-09-23T11:33:18;9.47;;;5.90;;
3217;SDS011;1621;49.702;8.618;2022-09-23T11:35:48;10.00;;;5.40;;
3217;SDS011;1621;49.702;8.618;2022-09-23T11:38:16;10.07;;;5.80;;
3217;SDS011;1621;49.702;8.618;2022-09-23T11:40:45;7.37;;;5.83;;
3217;SDS011;1621;49.702;8.618;2022-09-23T11:43:19;7.53;;;5.37;;
3217;SDS011;1621;49.702;8.618;2022-09-23T11:45:48;9.03;;;5.60;;
3217;SDS011;1621;49.702;8.618;2022-09-23T11:48:17;10.37;;;5.60;;
3217;SDS011;1621;49.702;8.618;2022-09-23T11:50:45;10.03;;;5.57;;
3217;SDS011;1621;49.702;8.618;2022-09-23T11:53:17;8.30;;;5.13;;
3217;SDS011;1621;49.702;8.618;2022-09-23T11:55:45;10.53;;;5.63;;
3217;SDS011;1621;49.702;8.618;2022-09-23T11:58:15;7.23;;;5.03;;
3217;SDS011;1621;49.702;8.618;2022-09-23T12:00:44;8.80;;;6.03;;
3217;SDS011;1621;49.702;8.618;2022-09-23T12:03:12;8.97;;;6.33;;
3217;SDS011;1621;49.702;8.618;2022-09-23T12:05:43;7.43;;;5.63;;
3217;SDS011;1621;49.702;8.618;2022-09-23T12:08:11;8.27;;;5.23;;
3217;SDS011;1621;49.702;8.618;2022-09-23T12:10:44;8.90;;;4.43;;
3217;SDS011;1621;49.702;8.618;2022-09-23T12:13:14;6.40;;;4.33;;
3217;SDS011;1621;49.702;8.618;2022-09-23T12:15:47;6.83;;;5.10;;
3217;SDS011;1621;49.702;8.618;2022-09-23T12:21:03;6.73;;;4.60;;
3217;SDS011;1621;49.702;8.618;2022-09-23T12:23:46;5.47;;;3.73;;
3217;SDS011;1621;49.702;8.618;2022-09-23T12:26:17;5.70;;;4.20;;
3217;SDS011;1621;49.702;8.618;2022-09-23T12:28:44;4.80;;;3.67;;
3217;SDS011;1621;49.702;8.618;2022-09-23T12:31:14;10.83;;;3.80;;
3217;SDS011;1621;49.702;8.618;2022-09-23T12:33:46;5.70;;;4.00;;
3217;SDS011;1621;49.702;8.618;2022-09-23T12:36:13;7.43;;;3.70;;
3217;SDS011;1621;49.702;8.618;2022-09-23T12:38:40;4.67;;;3.47;;
3217;SDS011;1621;49.702;8.618;2022-09-23T12:41:19;6.13;;;3.53;;
3217;SDS011;1621;49.702;8.618;2022-09-23T12:43:49;5.07;;;3.50;;
3217;SDS011;1621;49.702;8.618;2022-09-23T12:46:18;5.30;;;3.87;;
3217;SDS011;1621;49.702;8.618;2022-09-23T12:48:46;5.97;;;3.50;;
3217;SDS011;1621;49.702;8.618;2022-09-23T12:51:17;5.03;;;3.17;;
3217;SDS011;1621;49.702;8.618;2022-09-23T12:53:57;5.30;;;3.33;;
3217;SDS011;1621;49.702;8.618;2022-09-23T12:56:42;5.27;;;3.83;;
3217;SDS011;1621;49.702;8.618;2022-09-23T12:59:20;6.37;;;2.93;;
3217;SDS011;1621;49.702;8.618;2022-09-23T13:01:49;4.97;;;2.60;;
3217;SDS011;1621;49.702;8.618;2022-09-23T13:04:26;9.63;;;3.50;;
3217;SDS011;1621;49.702;8.618;2022-09-23T13:07:10;5.27;;;3.30;;
3217;SDS011;1621;49.702;8.618;2022-09-23T13:09:40;7.50;;;2.70;;
3217;SDS011;1621;49.702;8.618;2022-09-23T13:12:12;5.00;;;2.90;;
3217;SDS011;1621;49.702;8.618;2022-09-23T13:14:41;4.83;;;2.53;;
3217;SDS011;1621;49.702;8.618;2022-09-23T13:17:19;4.73;;;2.80;;
3217;SDS011;1621;49.702;8.618;2022-09-23T13:19:46;4.17;;;2.97;;
3217;SDS011;1621;49.702;8.618;2022-09-23T13:25:07;4.30;;;3.23;;
3217;SDS011;1621;49.702;8.618;2022-09-23T13:27:41;5.63;;;2.80;;
3217;SDS011;1621;49.702;8.618;2022-09-23T13:30:16;5.70;;;3.17;;
3217;SDS011;1621;49.702;8.618;2022-09-23T13:32:43;5.70;;;3.30;;
3217;SDS011;1621;49.702;8.618;2022-09-23T13:35:13;6.67;;;3.27;;
3217;SDS011;1621;49.702;8.618;2022-09-23T13:37:42;5.90;;;3.43;;
3217;SDS011;1621;49.702;8.618;2022-09-23T13:40:15;6.10;;;3.40;;
3217;SDS011;1621;49.702;8.618;2022-09-23T13:42:44;4.67;;;2.93;;
3217;SDS011;1621;49.702;8.618;2022-09-23T13:45:12;4.63;;;2.93;;
3217;SDS011;1621;49.702;8.618;2022-09-23T13:47:39;5.57;;;3.10;;
3217;SDS011;1621;49.702;8.618;2022-09-23T13:50:10;5.23;;;3.27;;
3217;SDS011;1621;49.702;8.618;2022-09-23T13:52:38;5.70;;;3.70;;
3217;SDS011;1621;49.702;8.618;2022-09-23T13:55:04;6.30;;;3.37;;
3217;SDS011;1621;49.702;8.618;2022-09-23T13:57:32;7.13;;;3.23;;
3217;SDS011;1621;49.702;8.618;2022-09-23T14:00:00;10.30;;;3.53;;
3217;SDS011;1621;49.702;8.618;2022-09-23T14:02:27;8.03;;;2.80;;
3217;SDS011;1621;49.702;8.618;2022-09-23T14:04:54;5.80;;;3.00;;
3217;SDS011;1621;49.702;8.618;2022-09-23T14:07:21;6.03;;;3.00;;
3217;SDS011;1621;49.702;8.618;2022-09-23T14:09:48;6.47;;;3.13;;
3217;SDS011;1621;49.702;8.618;2022-09-23T14:12:14;4.90;;;2.80;;
3217;SDS011;1621;49.702;8.618;2022-09-23T14:14:46;5.67;;;2.90;;
3217;SDS011;1621;49.702;8.618;2022-09-23T14:17:15;5.03;;;2.93;;
3217;SDS011;1621;49.702;8.618;2022-09-23T14:19:42;4.23;;;2.77;;
3217;SDS011;1621;49.702;8.618;2022-09-23T14:22:18;9.00;;;2.80;;
3217;SDS011;1621;49.702;8.618;2022-09-23T14:24:47;5.70;;;2.80;;
3217;SDS011;1621;49.702;8.618;2022-09-23T14:27:14;4.50;;;3.17;;
3217;SDS011;1621;49.702;8.618;2022-09-23T14:29:43;5.23;;;2.83;;
3217;SDS011;1621;49.702;8.618;2022-09-23T14:32:10;5.80;;;3.27;;
3217;SDS011;1621;49.702;8.618;2022-09-23T14:34:49;4.17;;;2.90;;
3217;SDS011;1621;49.702;8.618;2022-09-23T14:37:23;5.90;;;3.20;;
3217;SDS011;1621;49.702;8.618;2022-09-23T14:40:09;5.07;;;2.93;;
3217;SDS011;1621;49.702;8.618;2022-09-23T14:42:37;7.57;;;3.40;;
3217;SDS011;1621;49.702;8.618;2022-09-23T14:45:05;4.20;;;2.80;;
3217;SDS011;1621;49.702;8.618;2022-09-23T14:47:32;3.87;;;2.73;;
3217;SDS011;1621;49.702;8.618;2022-09-23T14:50:00;8.93;;;2.67;;
3217;SDS011;1621;49.702;8.618;2022-09-23T14:52:47;4.90;;;2.80;;
3217;SDS011;1621;49.702;8.618;2022-09-23T14:55:13;4.40;;;3.10;;
3217;SDS011;1621;49.702;8.618;2022-09-23T14:57:40;5.20;;;2.70;;
3217;SDS011;1621;49.702;8.618;2022-09-23T15:00:11;3.20;;;2.50;;
3217;SDS011;1621;49.702;8.618;2022-09-23T15:02:40;5.93;;;2.50;;
3217;SDS011;1621;49.702;8.618;2022-09-23T15:05:12;5.50;;;3.10;;
3217;SDS011;1621;49.702;8.618;2022-09-23T15:07:40;8.53;;;3.00;;
3217;SDS011;1621;49.702;8.618;2022-09-23T15:10:08;6.60;;;3.03;;
3217;SDS011;1621;49.702;8.618;2022-09-23T15:12:34;16.27;;;3.20;;
3217;SDS011;1621;49.702;8.618;2022-09-23T15:15:01;4.20;;;2.90;;
3217;SDS011;1621;49.702;8.618;2022-09-23T15:17:28;4.00;;;2.90;;
3217;SDS011;1621;49.702;8.618;2022-09-23T15:19:57;6.43;;;3.07;;
3217;SDS011;1621;49.702;8.618;2022-09-23T15:22:25;3.50;;;2.70;;
3217;SDS011;1621;49.702;8.618;2022-09-23T15:24:52;4.67;;;2.73;;
3217;SDS011;1621;49.702;8.618;2022-09-23T15:27:29;4.30;;;2.83;;
3217;SDS011;1621;49.702;8.618;2022-09-23T15:30:09;4.73;;;3.00;;
3217;SDS011;1621;49.702;8.618;2022-09-23T15:32:38;5.40;;;2.67;;
3217;SDS011;1621;49.702;8.618;2022-09-23T15:35:06;5.67;;;2.80;;
3217;SDS011;1621;49.702;8.618;2022-09-23T15:37:35;5.77;;;3.07;;
3217;SDS011;1621;49.702;8.618;2022-09-23T15:40:01;5.20;;;2.90;;
3217;SDS011;1621;49.702;8.618;2022-09-23T15:42:27;5.93;;;3.40;;
3217;SDS011;1621;49.702;8.618;2022-09-23T15:44:54;6.07;;;3.17;;